Time;durP1;ratioP1;P1;durP2;ratioP2;P2;SDS_P1;SDS_P2;PMS_P1;PMS_P2;Temp;Humidity;BMP_temperature;BMP_pressure;BME280_temperature;BME280_humidity;BME280_pressure;Samples;Min_cycle;Max_cycle;Signal;HPM_P1;HPM_P2
2022/03/21 00:00:27;;;;;;;15.85;4.35;;;24.20;69.70;;;;;;6176529;22;19998;-73
2022/03/21 00:02:55;;;;;;;17.45;4.70;;;24.20;69.70;;;;;;6178073;23;20376;-72
2022/03/21 00:05:22;;;;;;;12.88;4.00;;;24.10;69.80;;;;;;6176878;23;20047;-72
2022/03/21 00:07:49;;;;;;;18.80;4.10;;;24.20;69.90;;;;;;6177911;23;20030;-72
2022/03/21 00:10:16;;;;;;;15.05;4.18;;;24.10;69.90;;;;;;6176834;23;20001;-74
2022/03/21 00:12:42;;;;;;;13.90;3.70;;;24.10;70.00;;;;;;6177359;23;20084;-73
2022/03/21 00:15:10;;;;;;;21.05;4.82;;;24.10;70.10;;;;;;6177855;23;20001;-72
2022/03/21 00:17:40;;;;;;;12.02;4.03;;;24.10;70.20;;;;;;6176706;23;20047;-72
2022/03/21 00:20:09;;;;;;;17.00;5.28;;;24.10;70.10;;;;;;6177576;23;20001;-72
2022/03/21 00:22:37;;;;;;;11.50;3.60;;;24.10;70.10;;;;;;6176211;23;20449;-73
2022/03/21 00:25:05;;;;;;;18.20;5.50;;;24.10;70.20;;;;;;6177660;23;20024;-72
2022/03/21 00:27:33;;;;;;;18.63;4.22;;;24.10;70.20;;;;;;6176457;23;20001;-72
2022/03/21 00:29:59;;;;;;;12.60;4.13;;;24.10;70.30;;;;;;6177033;23;19997;-72
2022/03/21 00:32:26;;;;;;;12.73;4.05;;;24.00;70.30;;;;;;6177428;23;20088;-72
2022/03/21 00:34:53;;;;;;;13.35;4.82;;;24.00;70.40;;;;;;6176128;23;20009;-72
2022/03/21 00:37:20;;;;;;;13.68;4.95;;;24.00;70.40;;;;;;6177601;23;20083;-73
2022/03/21 00:39:46;;;;;;;11.40;3.50;;;24.00;70.50;;;;;;6176411;23;20335;-72
2022/03/21 00:42:13;;;;;;;14.95;4.88;;;24.00;70.50;;;;;;6177139;23;20058;-72
2022/03/21 00:44:39;;;;;;;15.18;4.78;;;24.00;70.60;;;;;;6176620;23;20008;-73
2022/03/21 00:47:06;;;;;;;22.70;4.18;;;24.00;70.70;;;;;;6177453;23;20135;-72
2022/03/21 00:49:32;;;;;;;21.92;4.75;;;24.00;70.70;;;;;;6177346;23;20135;-73
2022/03/21 00:51:59;;;;;;;42.58;6.75;;;23.90;70.80;;;;;;6176529;23;20005;-72
2022/03/21 00:54:25;;;;;;;67.60;12.90;;;23.90;70.90;;;;;;6177892;23;19997;-72
2022/03/21 00:56:52;;;;;;;45.90;14.10;;;23.90;71.10;;;;;;6175941;23;20312;-73
2022/03/21 00:59:18;;;;;;;41.00;18.63;;;24.00;71.40;;;;;;6177535;23;19997;-72
2022/03/21 01:01:45;;;;;;;27.15;8.23;;;23.90;71.20;;;;;;6176351;23;20001;-72
2022/03/21 01:04:11;;;;;;;25.35;6.35;;;23.90;71.30;;;;;;6178194;23;20040;-72
2022/03/21 01:06:38;;;;;;;16.42;4.53;;;23.90;71.20;;;;;;6177910;23;19997;-73
2022/03/21 01:09:05;;;;;;;16.10;5.03;;;23.90;71.20;;;;;;6177706;23;20001;-72
2022/03/21 01:11:31;;;;;;;12.32;3.78;;;23.90;71.80;;;;;;6179119;23;20068;-72
2022/03/21 01:13:58;;;;;;;9.38;4.07;;;23.80;71.20;;;;;;6177435;23;20402;-72
2022/03/21 01:16:25;;;;;;;18.63;4.07;;;23.80;71.20;;;;;;6179171;23;20009;-73
2022/03/21 01:18:52;;;;;;;19.13;4.85;;;23.80;71.30;;;;;;6177256;23;20076;-72
2022/03/21 01:21:18;;;;;;;11.65;4.32;;;23.80;71.40;;;;;;6178265;23;20062;-72
2022/03/21 01:23:44;;;;;;;20.33;5.20;;;23.80;71.40;;;;;;6177539;23;20009;-73
2022/03/21 01:26:11;;;;;;;18.05;4.57;;;23.80;71.40;;;;;;6177663;23;20560;-72
2022/03/21 01:28:38;;;;;;;15.73;4.85;;;23.80;71.60;;;;;;6178991;23;20416;-72
2022/03/21 01:31:04;;;;;;;26.38;5.30;;;23.70;71.60;;;;;;6177124;23;20001;-72
2022/03/21 01:33:31;;;;;;;14.43;4.22;;;23.80;71.70;;;;;;6178051;23;20013;-72
2022/03/21 01:35:58;;;;;;;22.17;7.82;;;23.70;71.80;;;;;;6177798;23;20388;-72
2022/03/21 01:38:25;;;;;;;23.30;14.65;;;23.70;71.80;;;;;;6178798;23;20001;-70
2022/03/21 01:40:51;;;;;;;23.75;11.55;;;23.70;71.90;;;;;;6177518;23;20012;-75
2022/03/21 01:43:17;;;;;;;15.75;6.25;;;23.70;71.90;;;;;;6177606;23;20009;-72
2022/03/21 01:45:44;;;;;;;18.13;4.45;;;23.70;71.90;;;;;;6281406;22;20419;-72
2022/03/21 01:48:10;;;;;;;22.20;4.60;;;23.70;72.00;;;;;;6176200;23;20310;-73
2022/03/21 01:50:37;;;;;;;14.75;4.90;;;23.70;72.00;;;;;;6177110;23;20052;-72
2022/03/21 01:55:49;;;;;;;9.45;3.40;;;23.70;72.00;;;;;;6177095;23;20035;-72
2022/03/21 01:58:16;;;;;;;10.25;3.20;;;23.60;72.00;;;;;;6174981;23;20032;-72
2022/03/21 02:00:45;;;;;;;14.05;4.85;;;23.60;72.00;;;;;;6175624;23;20028;-75
2022/03/21 02:03:12;;;;;;;15.25;4.57;;;23.60;72.00;;;;;;6177004;23;20009;-75
2022/03/21 02:05:39;;;;;;;14.77;4.03;;;23.60;72.00;;;;;;6175868;23;19999;-73
2022/03/21 02:08:07;;;;;;;13.55;4.93;;;23.60;72.00;;;;;;6177586;23;20001;-76
2022/03/21 02:10:33;;;;;;;13.20;4.07;;;23.60;72.00;;;;;;6176007;23;20005;-73
2022/03/21 02:13:00;;;;;;;22.55;5.05;;;23.60;72.00;;;;;;6177479;23;19997;-75
2022/03/21 02:15:27;;;;;;;14.40;4.18;;;23.60;72.20;;;;;;6176533;23;20005;-73
2022/03/21 02:18:00;;;;;;;14.68;3.90;;;23.60;72.30;;;;;;6176649;23;20027;-74
2022/03/21 02:20:31;;;;;;;18.00;4.45;;;23.50;72.20;;;;;;6176759;23;20081;-72
2022/03/21 02:23:08;;;;;;;14.90;5.05;;;23.50;72.40;;;;;;6173207;23;20436;-72
2022/03/21 02:25:45;;;;;;;13.23;4.38;;;23.50;72.50;;;;;;6177062;23;19997;-73
2022/03/21 02:28:17;;;;;;;21.67;4.30;;;23.50;72.60;;;;;;6173749;23;20001;-73
2022/03/21 02:30:48;;;;;;;15.68;4.15;;;23.50;72.60;;;;;;6176856;23;20459;-72
2022/03/21 02:33:17;;;;;;;12.95;3.50;;;23.50;72.60;;;;;;6178033;23;20050;-72
2022/03/21 02:35:48;;;;;;;15.88;4.38;;;23.50;72.60;;;;;;6176952;23;20041;-72
2022/03/21 02:38:17;;;;;;;12.90;5.10;;;23.50;72.50;;;;;;6178535;23;20039;-72
2022/03/21 02:40:44;;;;;;;19.08;4.80;;;23.50;72.60;;;;;;6176888;23;20025;-72
2022/03/21 02:43:10;;;;;;;19.10;3.70;;;23.50;72.50;;;;;;6177833;23;20020;-72
2022/03/21 02:45:37;;;;;;;25.77;5.15;;;23.50;72.60;;;;;;6177154;23;20076;-73
2022/03/21 02:48:03;;;;;;;17.58;3.63;;;23.50;72.80;;;;;;6177764;23;20037;-71
2022/03/21 02:51:03;;;;;;;17.02;4.88;;;23.50;72.80;;;;;;6178057;23;20005;-72
2022/03/21 02:53:32;;;;;;;13.25;3.60;;;23.50;72.60;;;;;;6176509;22;20033;-72
2022/03/21 02:55:59;;;;;;;14.55;4.38;;;23.50;72.40;;;;;;6177930;23;20021;-72
2022/03/21 02:58:25;;;;;;;15.50;5.03;;;23.40;72.30;;;;;;6176639;23;20088;-74
2022/03/21 03:00:52;;;;;;;16.15;4.20;;;23.40;72.30;;;;;;6177975;23;20058;-71
2022/03/21 03:03:19;;;;;;;13.65;3.67;;;23.40;72.40;;;;;;6177876;23;20009;-71
2022/03/21 03:05:45;;;;;;;9.90;3.85;;;23.40;72.40;;;;;;6176986;23;20002;-71
2022/03/21 03:08:12;;;;;;;12.57;4.20;;;23.40;72.40;;;;;;6177824;23;20080;-72
2022/03/21 03:10:38;;;;;;;32.60;14.68;;;23.30;72.40;;;;;;6176757;23;20012;-73
2022/03/21 03:13:05;;;;;;;23.52;12.50;;;23.30;72.50;;;;;;6178104;23;19998;-73
2022/03/21 03:15:32;;;;;;;27.73;8.23;;;23.30;72.60;;;;;;6176981;23;20025;-73
2022/03/21 03:17:58;;;;;;;15.73;5.60;;;23.30;72.50;;;;;;6177724;23;20084;-71
2022/03/21 03:20:25;;;;;;;14.60;4.75;;;23.30;73.10;;;;;;6177186;23;20008;-72
2022/03/21 03:22:51;;;;;;;20.95;6.05;;;23.30;72.50;;;;;;6177166;23;20416;-73
2022/03/21 03:25:18;;;;;;;16.40;4.63;;;23.30;72.50;;;;;;6177317;23;20001;-72
2022/03/21 03:27:45;;;;;;;19.35;5.20;;;23.30;72.50;;;;;;6176749;23;20001;-72
2022/03/21 03:30:12;;;;;;;19.10;4.32;;;23.30;72.50;;;;;;6178466;23;20005;-72
2022/03/21 03:32:40;;;;;;;23.48;5.65;;;23.20;72.60;;;;;;6177027;23;19997;-71
2022/03/21 03:35:07;;;;;;;15.30;4.13;;;23.20;72.70;;;;;;6177581;23;20396;-72
2022/03/21 03:37:33;;;;;;;18.48;4.18;;;23.20;72.90;;;;;;6176723;23;20001;-72
2022/03/21 03:39:59;;;;;;;12.57;4.35;;;23.20;72.80;;;;;;6177447;23;20001;-72
2022/03/21 03:42:26;;;;;;;13.65;3.63;;;23.20;72.80;;;;;;6178060;23;20001;-73
2022/03/21 03:44:53;;;;;;;14.35;4.25;;;23.20;72.70;;;;;;6176752;23;20070;-72
2022/03/21 03:47:20;;;;;;;24.40;5.97;;;23.10;72.70;;;;;;6177810;23;20330;-73
2022/03/21 03:49:46;;;;;;;16.73;5.18;;;23.20;72.70;;;;;;6176361;23;20621;-73
2022/03/21 03:52:13;;;;;;;14.00;4.50;;;23.10;72.70;;;;;;6281374;22;20363;-72
2022/03/21 03:54:39;;;;;;;15.43;5.43;;;23.10;72.70;;;;;;6177105;23;20012;-71
2022/03/21 03:57:06;;;;;;;17.05;4.82;;;23.10;72.70;;;;;;6177352;23;20005;-72
2022/03/21 03:59:32;;;;;;;15.95;5.72;;;23.10;72.60;;;;;;6177654;23;20001;-72
2022/03/21 04:01:59;;;;;;;16.83;6.03;;;23.10;72.70;;;;;;6176423;23;20001;-72
2022/03/21 04:04:25;;;;;;;19.98;5.90;;;23.10;72.70;;;;;;6177806;23;20013;-72
2022/03/21 04:06:53;;;;;;;43.20;8.43;;;23.10;72.70;;;;;;6175888;23;20357;-71
2022/03/21 04:09:19;;;;;;;40.92;11.48;;;23.10;72.60;;;;;;6177647;23;20055;-71
2022/03/21 04:11:45;;;;;;;36.03;11.27;;;23.10;73.00;;;;;;6176133;23;20012;-72
2022/03/21 04:14:12;;;;;;;25.65;7.13;;;23.10;73.20;;;;;;6177284;23;20005;-73
2022/03/21 04:16:43;;;;;;;34.47;7.43;;;23.00;73.10;;;;;;6177454;23;20076;-75
2022/03/21 04:19:09;;;;;;;52.88;8.15;;;23.00;73.00;;;;;;6176862;23;20832;-70
2022/03/21 04:21:36;;;;;;;21.75;5.05;;;23.00;73.20;;;;;;6177505;23;20574;-73
2022/03/21 04:24:03;;;;;;;20.45;4.68;;;23.00;73.40;;;;;;6176510;23;20054;-72
2022/03/21 04:26:29;;;;;;;22.55;4.93;;;23.00;73.40;;;;;;6177167;23;20448;-71
2022/03/21 04:28:56;;;;;;;18.55;4.68;;;23.00;73.30;;;;;;6175035;23;20428;-73
2022/03/21 04:31:23;;;;;;;13.27;5.30;;;22.90;73.20;;;;;;6176558;23;20046;-72
2022/03/21 04:33:49;;;;;;;14.18;5.35;;;23.00;73.30;;;;;;6175934;23;20017;-71
2022/03/21 04:36:16;;;;;;;10.40;3.90;;;22.90;73.20;;;;;;6174740;23;20051;-72
2022/03/21 04:38:43;;;;;;;15.10;4.40;;;22.90;73.20;;;;;;6177234;23;20424;-72
2022/03/21 04:41:10;;;;;;;11.25;4.07;;;22.90;73.20;;;;;;6175262;23;20001;-71
2022/03/21 04:43:36;;;;;;;12.95;4.25;;;22.90;73.20;;;;;;6176073;23;20028;-74
2022/03/21 04:46:05;;;;;;;15.75;3.88;;;22.90;73.20;;;;;;6175171;23;20008;-74
2022/03/21 04:48:31;;;;;;;15.93;5.53;;;22.90;73.30;;;;;;6176199;23;20052;-72
2022/03/21 04:50:58;;;;;;;16.35;6.55;;;22.90;73.20;;;;;;6175607;23;20636;-72
2022/03/21 04:53:24;;;;;;;20.50;4.50;;;22.90;73.30;;;;;;6176095;23;19993;-73
2022/03/21 04:55:51;;;;;;;26.17;7.03;;;22.90;73.30;;;;;;6177527;23;20054;-72
2022/03/21 04:58:18;;;;;;;23.27;4.68;;;22.90;73.30;;;;;;6175957;23;20005;-73
2022/03/21 05:00:44;;;;;;;21.60;5.65;;;22.90;73.40;;;;;;6177226;23;20074;-72
2022/03/21 05:03:11;;;;;;;25.75;5.05;;;22.80;73.10;;;;;;6175980;23;20104;-71
2022/03/21 05:05:38;;;;;;;21.58;7.70;;;22.80;73.70;;;;;;6177103;23;20400;-72
2022/03/21 05:08:44;;;;;;;22.05;11.70;;;22.80;74.20;;;;;;6174975;23;20001;-74
2022/03/21 05:11:11;;;;;;;28.65;7.93;;;22.80;74.40;;;;;;6174960;23;20036;-71
2022/03/21 05:13:38;;;;;;;20.95;6.72;;;22.80;74.10;;;;;;6176551;23;20426;-73
2022/03/21 05:16:07;;;;;;;20.10;6.20;;;22.80;74.20;;;;;;6174594;23;20032;-73
2022/03/21 05:18:34;;;;;;;14.30;5.60;;;22.70;74.70;;;;;;6176230;23;20024;-74
2022/03/21 05:21:05;;;;;;;32.40;6.80;;;22.80;74.10;;;;;;6175773;23;20342;-71
2022/03/21 05:31:48;;;;;;;23.60;5.57;;;22.70;74.20;;;;;;6175918;23;20708;-74
2022/03/21 05:36:59;;;;;;;17.13;6.15;;;22.70;74.20;;;;;;6175405;23;20427;-71
2022/03/21 05:39:26;;;;;;;21.17;5.00;;;22.70;74.20;;;;;;6175269;23;20100;-73
2022/03/21 05:41:52;;;;;;;16.45;6.50;;;22.70;74.30;;;;;;6174251;23;20011;-72
2022/03/21 05:44:19;;;;;;;13.45;5.20;;;22.70;74.30;;;;;;6175319;23;20658;-72
2022/03/21 05:46:46;;;;;;;13.40;4.80;;;22.70;74.30;;;;;;6175646;23;20494;-72
2022/03/21 05:49:52;;;;;;;21.42;7.35;;;22.70;74.30;;;;;;6177134;23;20340;-73
2022/03/21 05:52:19;;;;;;;20.55;6.95;;;22.70;74.50;;;;;;6176203;23;20012;-73
2022/03/21 05:54:46;;;;;;;13.85;5.38;;;22.70;74.50;;;;;;6172504;23;20005;-73
2022/03/21 05:57:12;;;;;;;17.40;5.35;;;22.70;75.30;;;;;;6173817;23;20020;-73
2022/03/21 06:02:23;;;;;;;34.93;11.63;;;22.70;74.70;;;;;;6172863;23;20016;-72
2022/03/21 06:04:50;;;;;;;19.42;9.40;;;22.70;74.80;;;;;;6173803;23;20230;-72
2022/03/21 06:07:17;;;;;;;21.65;8.15;;;22.70;74.90;;;;;;6172535;23;19993;-72
2022/03/21 06:09:44;;;;;;;15.60;5.75;;;22.70;74.80;;;;;;6175946;23;20015;-72
2022/03/21 06:12:12;;;;;;;20.27;6.50;;;22.70;75.00;;;;;;6176136;23;20311;-72
2022/03/21 06:14:39;;;;;;;15.35;4.95;;;22.80;75.10;;;;;;6177386;23;20084;-72
2022/03/21 06:17:05;;;;;;;15.13;5.43;;;22.80;75.20;;;;;;6176565;23;20012;-72
2022/03/21 06:19:32;;;;;;;21.65;6.07;;;22.80;75.20;;;;;;6176681;23;20089;-73
2022/03/21 06:21:58;;;;;;;24.30;5.93;;;22.80;75.40;;;;;;6177526;23;20005;-72
2022/03/21 06:24:25;;;;;;;44.38;28.35;;;22.80;75.60;;;;;;6175838;23;20337;-74
2022/03/21 06:26:51;;;;;;;23.40;15.90;;;22.80;75.80;;;;;;6177135;23;20060;-74
2022/03/21 06:29:18;;;;;;;28.02;12.18;;;22.90;75.90;;;;;;6175982;23;20036;-69
2022/03/21 06:31:44;;;;;;;20.42;7.28;;;22.90;76.10;;;;;;6171383;23;20060;-70
2022/03/21 06:34:11;;;;;;;14.18;5.97;;;22.90;76.20;;;;;;6175731;23;20021;-72
2022/03/21 06:36:37;;;;;;;15.32;5.22;;;22.90;76.30;;;;;;6176808;23;20432;-72
2022/03/21 06:39:05;;;;;;;15.05;5.53;;;23.00;76.30;;;;;;6177294;23;20032;-72
2022/03/21 06:41:31;;;;;;;15.32;5.63;;;23.00;76.30;;;;;;6175040;23;20000;-72
2022/03/21 06:43:58;;;;;;;14.27;4.35;;;23.00;76.30;;;;;;6177228;23;20049;-72
2022/03/21 06:46:24;;;;;;;11.90;3.97;;;23.10;76.30;;;;;;6176303;23;19998;-71
2022/03/21 06:48:51;;;;;;;12.45;4.20;;;23.10;76.30;;;;;;6178084;23;20015;-74
2022/03/21 06:51:17;;;;;;;14.02;3.67;;;23.10;76.20;;;;;;6173747;23;20001;-73
2022/03/21 06:53:44;;;;;;;12.82;4.53;;;23.10;76.10;;;;;;6175797;23;20002;-74
2022/03/21 06:56:10;;;;;;;11.25;4.47;;;23.20;76.20;;;;;;6177082;23;20064;-70
2022/03/21 06:58:37;;;;;;;17.55;3.85;;;23.20;76.20;;;;;;6177468;23;20594;-72
2022/03/21 07:01:03;;;;;;;8.35;3.00;;;23.20;76.20;;;;;;6174311;23;20086;-72
2022/03/21 07:03:32;;;;;;;14.00;7.55;;;23.30;76.20;;;;;;6172870;23;20410;-70
2022/03/21 07:05:59;;;;;;;13.40;9.07;;;23.30;76.10;;;;;;6176424;22;20005;-71
2022/03/21 07:08:26;;;;;;;18.98;12.65;;;23.30;76.10;;;;;;6176740;23;20341;-74
2022/03/21 07:10:52;;;;;;;17.58;9.48;;;23.30;76.10;;;;;;6177732;23;20001;-74
2022/03/21 07:13:19;;;;;;;16.38;8.77;;;23.40;76.10;;;;;;6172234;23;20001;-70
2022/03/21 07:15:45;;;;;;;13.30;7.95;;;23.40;76.00;;;;;;6177170;23;20005;-70
2022/03/21 07:18:12;;;;;;;18.42;7.07;;;23.40;75.90;;;;;;6177380;23;20012;-72
2022/03/21 07:20:42;;;;;;;14.25;5.90;;;23.50;75.80;;;;;;6176927;23;19993;-71
2022/03/21 07:23:09;;;;;;;13.70;5.57;;;23.50;75.70;;;;;;6175566;23;20020;-72
2022/03/21 07:25:35;;;;;;;14.32;4.75;;;23.60;75.70;;;;;;6175797;23;19998;-73
2022/03/21 07:28:02;;;;;;;10.98;4.80;;;23.60;75.60;;;;;;6178403;23;20001;-73
2022/03/21 07:30:29;;;;;;;15.15;4.88;;;23.60;75.60;;;;;;6174757;23;20011;-73
2022/03/21 07:32:57;;;;;;;16.13;5.50;;;23.70;75.50;;;;;;6175037;23;20008;-73
2022/03/21 07:35:24;;;;;;;12.40;5.22;;;23.70;75.30;;;;;;6177220;23;20020;-74
2022/03/21 07:37:54;;;;;;;13.75;5.35;;;23.80;75.30;;;;;;6175228;23;20015;-74
2022/03/21 07:40:21;;;;;;;13.98;6.03;;;23.80;75.20;;;;;;6176572;23;20317;-75
2022/03/21 07:42:48;;;;;;;16.92;5.32;;;23.80;75.10;;;;;;6171752;23;20016;-73
2022/03/21 07:48:01;;;;;;;19.02;9.48;;;23.90;75.00;;;;;;6175535;23;20012;-72
2022/03/21 07:50:28;;;;;;;23.95;12.60;;;24.00;74.90;;;;;;6176494;23;20443;-72
2022/03/21 07:52:57;;;;;;;33.63;11.07;;;24.00;74.90;;;;;;6174902;23;20009;-73
2022/03/21 07:55:23;;;;;;;18.33;8.77;;;24.10;74.80;;;;;;6175734;23;20422;-72
2022/03/21 07:57:50;;;;;;;21.15;8.20;;;24.10;74.70;;;;;;6177518;23;20439;-75
2022/03/21 08:00:17;;;;;;;20.00;8.85;;;24.10;74.70;;;;;;6175595;23;20413;-72
2022/03/21 08:02:44;;;;;;;15.88;6.88;;;24.20;74.70;;;;;;6176398;23;20009;-70
2022/03/21 08:05:13;;;;;;;16.23;7.07;;;24.20;74.60;;;;;;6174658;23;20001;-71
2022/03/21 08:07:40;;;;;;;20.33;7.70;;;24.30;74.50;;;;;;6175729;23;20008;-72
2022/03/21 08:10:07;;;;;;;26.23;7.97;;;24.40;74.40;;;;;;6177452;23;20076;-73
2022/03/21 08:12:34;;;;;;;27.65;10.30;;;24.40;74.30;;;;;;6173262;23;20001;-72
2022/03/21 08:15:00;;;;;;;30.33;17.23;;;24.40;74.10;;;;;;6174695;23;20008;-72
2022/03/21 08:17:27;;;;;;;19.23;10.32;;;24.50;74.00;;;;;;6175594;23;20463;-71
2022/03/21 08:19:54;;;;;;;21.90;9.80;;;24.60;74.00;;;;;;6175801;23;20032;-73
2022/03/21 08:22:21;;;;;;;19.80;7.43;;;24.60;73.90;;;;;;6174998;23;20035;-75
2022/03/21 08:24:48;;;;;;;17.83;7.07;;;24.60;73.60;;;;;;6174796;23;20009;-71
2022/03/21 08:27:14;;;;;;;16.73;5.80;;;24.70;73.50;;;;;;6177020;23;20001;-71
2022/03/21 08:29:41;;;;;;;16.13;5.40;;;24.70;73.10;;;;;;6176409;23;20005;-70
2022/03/21 08:32:08;;;;;;;17.45;6.03;;;24.80;72.80;;;;;;6177607;23;20050;-71
2022/03/21 08:34:34;;;;;;;16.65;8.02;;;24.90;72.70;;;;;;6174307;23;20013;-71
2022/03/21 08:37:01;;;;;;;52.58;38.13;;;24.90;72.60;;;;;;6177022;23;20001;-70
2022/03/21 08:39:28;;;;;;;35.45;22.58;;;25.00;72.30;;;;;;6173246;22;20455;-70
2022/03/21 08:41:54;;;;;;;26.92;12.57;;;25.00;72.20;;;;;;6175378;22;20035;-69
2022/03/21 08:44:21;;;;;;;18.52;11.52;;;25.10;72.00;;;;;;6174096;23;20009;-71
2022/03/21 08:46:48;;;;;;;15.55;8.35;;;25.10;71.80;;;;;;6175176;23;20009;-72
2022/03/21 08:49:23;;;;;;;13.60;7.10;;;25.20;71.60;;;;;;6177470;23;20073;-71
2022/03/21 08:51:50;;;;;;;11.73;5.40;;;25.30;71.30;;;;;;6175760;23;20028;-72
2022/03/21 08:54:17;;;;;;;13.82;5.40;;;25.30;71.00;;;;;;6175215;23;20435;-72
2022/03/21 08:56:44;;;;;;;14.20;4.40;;;25.40;70.90;;;;;;6175874;23;20005;-71
2022/03/21 08:59:11;;;;;;;13.48;4.63;;;25.50;70.50;;;;;;6176481;23;20084;-76
2022/03/21 09:01:37;;;;;;;8.90;4.32;;;25.50;70.30;;;;;;6176058;23;20008;-73
2022/03/21 09:04:04;;;;;;;12.15;4.85;;;25.60;70.10;;;;;;6175177;23;20009;-73
2022/03/21 09:06:31;;;;;;;9.48;4.15;;;25.60;70.10;;;;;;6175117;23;20004;-73
2022/03/21 09:08:58;;;;;;;11.57;3.80;;;25.70;69.70;;;;;;6174698;23;20683;-73
2022/03/21 09:11:26;;;;;;;13.10;4.97;;;25.80;69.40;;;;;;6176084;23;20394;-76
2022/03/21 09:13:52;;;;;;;16.73;5.00;;;25.80;69.30;;;;;;6277988;22;20374;-72
2022/03/21 09:16:19;;;;;;;16.30;5.28;;;25.90;69.50;;;;;;6175706;23;20046;-75
2022/03/21 09:18:45;;;;;;;12.45;4.70;;;26.00;68.90;;;;;;6176631;23;20441;-72
2022/03/21 09:21:12;;;;;;;11.63;4.78;;;26.00;68.60;;;;;;6176278;23;19994;-74
2022/03/21 09:23:39;;;;;;;12.38;5.53;;;26.10;68.30;;;;;;6177483;23;20048;-74
2022/03/21 09:26:11;;;;;;;15.45;5.10;;;26.10;68.20;;;;;;6177362;23;20004;-74
2022/03/21 09:28:44;;;;;;;14.23;6.22;;;26.20;68.10;;;;;;6178435;23;19994;-72
2022/03/21 09:31:13;;;;;;;22.00;8.77;;;26.30;68.20;;;;;;6177245;23;20046;-73
2022/03/21 09:33:41;;;;;;;23.02;12.82;;;26.40;68.50;;;;;;6177720;23;20045;-73
2022/03/21 09:36:08;;;;;;;10.77;7.30;;;26.40;68.80;;;;;;6177765;23;20051;-73
2022/03/21 09:38:37;;;;;;;14.05;6.70;;;26.50;69.30;;;;;;6177223;23;20004;-75
2022/03/21 09:41:04;;;;;;;22.58;14.57;;;26.60;69.20;;;;;;6178154;23;19998;-73
2022/03/21 09:43:30;;;;;;;14.60;9.10;;;26.60;69.10;;;;;;6176801;23;20036;-74
2022/03/21 09:45:58;;;;;;;13.98;6.82;;;26.70;69.10;;;;;;6176121;23;20005;-73
2022/03/21 09:48:27;;;;;;;25.15;6.63;;;26.80;68.40;;;;;;6174192;23;20029;-73
2022/03/21 09:50:56;;;;;;;10.32;5.85;;;26.90;67.50;;;;;;6173037;23;20443;-73
2022/03/21 09:53:24;;;;;;;33.22;8.00;;;26.90;66.70;;;;;;6177052;23;19997;-75
2022/03/21 09:55:51;;;;;;;20.42;8.02;;;27.00;66.40;;;;;;6180960;23;20093;-74
2022/03/21 09:58:20;;;;;;;17.70;6.97;;;27.10;66.20;;;;;;6176718;23;20001;-71
2022/03/21 10:00:49;;;;;;;12.65;5.22;;;27.10;65.50;;;;;;6283937;22;20005;-76
2022/03/21 10:03:17;;;;;;;9.65;4.18;;;27.20;65.10;;;;;;6178574;23;20009;-72
2022/03/21 10:05:46;;;;;;;10.60;3.75;;;27.20;64.60;;;;;;6176590;23;19997;-73
2022/03/21 10:08:21;;;;;;;8.57;4.05;;;27.30;64.50;;;;;;6177242;23;20034;-71
2022/03/21 10:10:54;;;;;;;15.77;4.38;;;27.30;63.90;;;;;;6175860;23;20005;-71
2022/03/21 10:13:23;;;;;;;10.13;3.47;;;27.40;63.70;;;;;;6176386;23;19997;-71
2022/03/21 10:16:04;;;;;;;10.20;3.58;;;27.50;63.70;;;;;;6177914;23;20051;-71
2022/03/21 10:18:31;;;;;;;9.40;3.80;;;27.50;63.30;;;;;;6175748;23;20440;-71
2022/03/21 10:21:11;;;;;;;10.20;4.68;;;27.60;63.00;;;;;;6177315;23;19997;-71
2022/03/21 10:23:37;;;;;;;13.05;5.20;;;27.60;62.70;;;;;;6177133;23;20021;-72
2022/03/21 10:26:24;;;;;;;13.02;4.90;;;27.70;62.30;;;;;;6172499;23;20051;-74
2022/03/21 10:28:55;;;;;;;9.52;3.67;;;27.70;62.20;;;;;;6174904;23;20450;-72
2022/03/21 10:31:40;;;;;;;11.77;4.05;;;27.80;62.30;;;;;;6176277;23;20076;-72
2022/03/21 10:34:16;;;;;;;6.43;3.30;;;27.90;62.20;;;;;;6176158;23;20017;-74
2022/03/21 10:37:14;;;;;;;10.68;4.18;;;27.90;61.90;;;;;;6175606;23;20004;-69
2022/03/21 10:39:50;;;;;;;16.60;5.47;;;27.90;61.60;;;;;;6279322;22;20324;-75
2022/03/21 10:42:17;;;;;;;14.10;5.65;;;27.90;61.60;;;;;;6176806;23;20001;-74
2022/03/21 10:44:54;;;;;;;14.27;4.78;;;28.00;61.40;;;;;;6177017;23;20417;-72
2022/03/21 10:47:21;;;;;;;11.60;4.03;;;28.00;61.10;;;;;;6177463;23;20078;-73
2022/03/21 10:49:48;;;;;;;11.32;4.57;;;28.00;61.10;;;;;;6178039;23;20005;-73
2022/03/21 10:52:21;;;;;;;16.70;4.00;;;28.00;60.90;;;;;;6176382;23;20000;-72
2022/03/21 10:54:53;;;;;;;10.70;3.38;;;28.00;60.70;;;;;;6178180;23;20480;-71
2022/03/21 10:57:37;;;;;;;13.65;4.30;;;28.00;60.70;;;;;;6176896;23;20011;-72
2022/03/21 11:00:22;;;;;;;12.68;4.82;;;28.10;60.70;;;;;;6177613;23;20448;-71
2022/03/21 11:02:59;;;;;;;20.38;3.22;;;28.10;60.40;;;;;;6177932;23;20006;-71
2022/03/21 11:05:29;;;;;;;12.35;3.95;;;28.10;60.00;;;;;;6177193;23;20040;-71
2022/03/21 11:07:57;;;;;;;20.95;8.00;;;28.00;59.80;;;;;;6178045;23;20080;-72
2022/03/21 11:10:25;;;;;;;15.25;6.18;;;28.10;59.90;;;;;;6174471;23;20002;-70
2022/03/21 11:12:54;;;;;;;8.48;4.30;;;28.10;60.00;;;;;;6176903;23;20332;-73
2022/03/21 11:15:20;;;;;;;13.27;3.53;;;28.10;59.90;;;;;;6176779;23;20005;-73
2022/03/21 11:17:47;;;;;;;16.33;4.22;;;28.10;59.80;;;;;;6176785;23;20230;-72
2022/03/21 11:20:14;;;;;;;19.20;4.03;;;28.20;59.60;;;;;;6177339;23;20005;-72
2022/03/21 11:22:43;;;;;;;18.52;3.30;;;28.20;59.50;;;;;;6176265;23;20096;-71
2022/03/21 11:25:12;;;;;;;13.50;3.78;;;28.20;59.60;;;;;;6178077;23;20026;-75
2022/03/21 11:28:07;;;;;;;11.07;3.58;;;28.30;59.30;;;;;;6176375;23;20484;-73
2022/03/21 11:31:18;;;;;;;9.93;3.00;;;28.60;58.80;;;;;;6176987;23;20016;-72
2022/03/21 11:33:56;;;;;;;6.50;3.35;;;28.70;58.10;;;;;;6238172;23;20026;-73
2022/03/21 11:36:24;;;;;;;12.27;3.28;;;28.90;57.60;;;;;;6237547;23;20062;-72
2022/03/21 11:39:02;;;;;;;13.20;3.15;;;29.00;57.40;;;;;;6203715;22;20486;-75
2022/03/21 11:41:31;;;;;;;13.07;3.58;;;29.10;57.40;;;;;;6176801;23;20001;-72
2022/03/21 11:44:14;;;;;;;7.93;2.90;;;29.20;57.10;;;;;;6176053;23;20012;-72
2022/03/21 11:46:47;;;;;;;9.98;4.60;;;29.30;56.80;;;;;;6177095;23;20032;-72
2022/03/21 11:49:20;;;;;;;11.87;3.93;;;29.40;56.80;;;;;;6175939;23;19997;-72
2022/03/21 11:51:58;;;;;;;13.32;3.95;;;29.40;56.50;;;;;;6176889;23;20001;-73
2022/03/21 11:54:39;;;;;;;17.45;4.82;;;29.50;56.60;;;;;;6177170;23;20001;-72
2022/03/21 11:57:17;;;;;;;14.13;3.58;;;29.50;56.40;;;;;;6175936;23;20006;-72
2022/03/21 11:59:47;;;;;;;13.80;5.47;;;29.40;57.00;;;;;;6177040;23;20775;-72
2022/03/21 12:02:17;;;;;;;12.80;3.58;;;29.40;56.50;;;;;;6175469;23;20652;-73
2022/03/21 12:04:57;;;;;;;9.15;2.92;;;29.40;56.60;;;;;;6177001;23;20009;-71
2022/03/21 12:07:24;;;;;;;9.20;2.67;;;29.40;56.70;;;;;;6176975;23;20420;-72
2022/03/21 12:09:52;;;;;;;9.13;2.83;;;29.30;56.70;;;;;;6175637;23;20008;-73
2022/03/21 12:12:20;;;;;;;10.68;2.60;;;29.30;57.00;;;;;;6176842;23;20027;-74
2022/03/21 12:14:58;;;;;;;7.03;2.33;;;29.30;57.00;;;;;;6175471;23;20043;-71
2022/03/21 12:17:25;;;;;;;18.20;4.07;;;29.30;56.70;;;;;;6176906;23;20009;-73
2022/03/21 12:19:52;;;;;;;10.88;4.97;;;29.30;56.80;;;;;;6176594;23;20028;-73
2022/03/21 12:22:32;;;;;;;12.23;4.47;;;29.20;57.30;;;;;;6176525;23;20079;-74
2022/03/21 12:25:07;;;;;;;15.63;4.22;;;29.10;57.70;;;;;;6176809;23;20013;-73
2022/03/21 12:27:38;;;;;;;47.70;6.20;;;29.00;57.90;;;;;;6175910;23;20029;-75
2022/03/21 12:30:32;;;;;;;29.80;5.22;;;28.90;58.30;;;;;;6177471;23;20001;-72
2022/03/21 12:33:07;;;;;;;17.65;2.85;;;28.90;58.90;;;;;;6174645;23;20008;-79
2022/03/21 12:35:56;;;;;;;10.23;3.00;;;28.80;58.80;;;;;;6173976;23;20444;-72
2022/03/21 12:38:24;;;;;;;10.93;2.30;;;28.80;58.80;;;;;;6175519;22;20028;-71
2022/03/21 12:40:55;;;;;;;12.82;2.90;;;28.80;58.80;;;;;;6173603;23;20350;-71
2022/03/21 12:43:25;;;;;;;13.00;3.08;;;28.70;58.70;;;;;;6174377;23;20428;-77
2022/03/21 12:46:07;;;;;;;13.30;3.03;;;28.70;58.80;;;;;;6174192;23;20033;-71
2022/03/21 12:48:35;;;;;;;9.05;2.90;;;28.70;58.80;;;;;;6173678;23;20377;-73
2022/03/21 12:51:04;;;;;;;11.25;3.00;;;28.70;58.80;;;;;;6174734;23;20001;-73
2022/03/21 12:53:44;;;;;;;19.42;2.92;;;28.80;58.80;;;;;;6172637;22;20029;-76
2022/03/21 12:56:13;;;;;;;13.38;2.92;;;28.80;58.70;;;;;;6174127;23;20004;-71
2022/03/21 12:58:45;;;;;;;13.95;4.00;;;28.80;58.70;;;;;;6173108;23;20001;-71
2022/03/21 13:01:13;;;;;;;21.38;9.55;;;28.80;58.50;;;;;;6174616;23;19998;-73
2022/03/21 13:03:41;;;;;;;14.02;4.57;;;28.80;58.50;;;;;;6174858;23;20023;-73